createdAt,value
2022-08-26T00:01:52.723Z,20.54
2022-08-26T00:04:21.913Z,20.44
2022-08-26T00:06:48.718Z,20.43
2022-08-26T00:09:16.383Z,20.34
2022-08-26T00:11:47.219Z,20.39
2022-08-26T00:14:15.040Z,20.32
2022-08-26T00:16:47.587Z,20.33
2022-08-26T00:19:18.316Z,20.40
2022-08-26T00:21:46.301Z,20.33
2022-08-26T00:24:15.894Z,20.34
2022-08-26T00:26:42.978Z,20.27
2022-08-26T00:29:10.207Z,20.28
2022-08-26T00:31:37.846Z,20.37
2022-08-26T00:34:06.014Z,20.24
2022-08-26T00:36:34.058Z,20.21
2022-08-26T00:39:01.039Z,20.17
2022-08-26T00:41:28.797Z,20.19
2022-08-26T00:43:55.615Z,20.15
2022-08-26T00:46:29.209Z,20.24
2022-08-26T00:49:12.253Z,20.09
2022-08-26T00:51:53.512Z,20.16
2022-08-26T00:54:27.015Z,20.13
2022-08-26T00:57:05.642Z,20.08
2022-08-26T00:59:45.613Z,20.11
2022-08-26T01:02:18.005Z,20.09
2022-08-26T01:07:55.643Z,19.98
2022-08-26T01:10:28.018Z,19.96
2022-08-26T01:13:22.096Z,19.92
2022-08-26T01:15:56.877Z,19.99
2022-08-26T01:18:26.589Z,19.95
2022-08-26T01:20:59.950Z,19.91
2022-08-26T01:23:31.881Z,19.92
2022-08-26T01:26:19.645Z,20.01
2022-08-26T01:28:50.648Z,19.91
2022-08-26T01:31:23.840Z,19.83
2022-08-26T01:34:09.004Z,19.87
2022-08-26T01:36:37.799Z,19.85
2022-08-26T01:39:05.915Z,19.83
2022-08-26T01:41:35.308Z,19.96
2022-08-26T01:44:05.196Z,19.87
2022-08-26T01:46:32.960Z,19.88
2022-08-26T01:49:03.102Z,19.85
2022-08-26T01:51:39.008Z,19.78
2022-08-26T01:54:12.023Z,19.77
2022-08-26T01:56:40.710Z,19.71
2022-08-26T01:59:14.439Z,19.78
2022-08-26T02:01:41.825Z,19.68
2022-08-26T02:04:25.678Z,19.69
2022-08-26T02:06:54.592Z,19.63
2022-08-26T02:09:22.601Z,19.57
2022-08-26T02:11:51.093Z,19.58
2022-08-26T02:14:26.903Z,19.59
2022-08-26T02:16:54.279Z,19.64
2022-08-26T02:19:26.288Z,19.64
2022-08-26T02:21:53.638Z,19.63
2022-08-26T02:24:27.558Z,19.61
2022-08-26T02:26:57.716Z,19.55
2022-08-26T02:29:38.334Z,19.60
2022-08-26T02:32:08.395Z,19.51
2022-08-26T02:34:36.050Z,19.53
2022-08-26T02:37:11.258Z,19.54
2022-08-26T02:39:40.222Z,19.48
2022-08-26T02:42:07.524Z,19.48
2022-08-26T02:44:34.510Z,19.47
2022-08-26T02:47:01.530Z,19.46
2022-08-26T02:49:30.484Z,19.41
2022-08-26T02:51:57.682Z,19.32
2022-08-26T02:54:24.438Z,19.25
2022-08-26T02:56:51.574Z,19.21
2022-08-26T02:59:18.683Z,19.12
2022-08-26T03:01:45.494Z,19.09
2022-08-26T03:04:13.010Z,19.08
2022-08-26T03:06:41.629Z,19.04
2022-08-26T03:09:09.583Z,18.99
2022-08-26T03:11:37.750Z,19.02
2022-08-26T03:14:04.977Z,19.00
2022-08-26T03:16:34.949Z,19.01
2022-08-26T03:19:03.005Z,19.06
2022-08-26T03:21:30.206Z,19.09
2022-08-26T03:23:58.707Z,19.11
2022-08-26T03:26:27.143Z,19.13
2022-08-26T03:29:13.717Z,19.06
2022-08-26T03:31:40.941Z,18.74
2022-08-26T03:34:07.700Z,18.59
2022-08-26T03:36:35.066Z,18.62
2022-08-26T03:39:02.412Z,18.66
2022-08-26T03:41:29.770Z,18.72
2022-08-26T03:43:59.702Z,18.77
2022-08-26T03:46:29.577Z,18.86
2022-08-26T03:48:56.525Z,18.81
2022-08-26T03:51:23.500Z,18.77
2022-08-26T03:53:51.005Z,18.67
2022-08-26T03:56:17.752Z,18.52
2022-08-26T03:58:44.811Z,18.55
2022-08-26T04:01:16.144Z,18.56
2022-08-26T04:03:59.989Z,18.56
2022-08-26T04:06:33.422Z,18.52
2022-08-26T04:09:03.287Z,18.53
2022-08-26T04:11:34.309Z,18.47
2022-08-26T04:14:04.991Z,18.45
2022-08-26T04:16:32.265Z,18.45
2022-08-26T04:18:59.269Z,18.33
2022-08-26T04:21:27.221Z,18.44
2022-08-26T04:23:54.395Z,18.50
2022-08-26T04:26:24.352Z,18.50
2022-08-26T04:28:53.146Z,18.65
2022-08-26T04:31:20.819Z,18.77
2022-08-26T04:33:49.877Z,18.88
2022-08-26T04:36:18.492Z,19.05
2022-08-26T04:38:47.570Z,19.12
2022-08-26T04:41:14.977Z,19.07
2022-08-26T04:43:43.091Z,19.05
2022-08-26T04:46:16.846Z,19.06
2022-08-26T04:48:51.697Z,19.14
2022-08-26T04:51:21.355Z,19.30
2022-08-26T04:53:48.787Z,19.39
2022-08-26T04:56:17.601Z,19.43
2022-08-26T04:58:44.355Z,19.56
2022-08-26T05:01:12.037Z,19.69
2022-08-26T05:03:38.930Z,19.92
2022-08-26T05:06:07.761Z,19.87
2022-08-26T05:08:36.625Z,20.13
2022-08-26T05:11:04.995Z,19.98
2022-08-26T05:13:34.740Z,20.15
2022-08-26T05:16:07.685Z,20.34
2022-08-26T05:18:35.111Z,20.28
2022-08-26T05:21:03.239Z,20.49
2022-08-26T05:23:32.148Z,20.49
2022-08-26T05:26:00.414Z,20.71
2022-08-26T05:28:29.201Z,20.73
2022-08-26T05:30:56.347Z,20.82
2022-08-26T05:33:23.428Z,20.71
2022-08-26T05:35:50.320Z,20.62
2022-08-26T05:38:20.127Z,20.77
2022-08-26T05:40:52.901Z,20.88
2022-08-26T05:43:20.947Z,20.85
2022-08-26T05:45:50.368Z,21.01
2022-08-26T05:48:19.132Z,20.94
2022-08-26T05:50:52.640Z,21.19
2022-08-26T05:53:22.658Z,21.21
2022-08-26T05:55:53.032Z,21.25
2022-08-26T05:58:22.011Z,21.27
2022-08-26T06:01:00.968Z,21.26
2022-08-26T06:03:28.315Z,21.39
2022-08-26T06:05:55.576Z,21.39
2022-08-26T06:08:23.529Z,21.35
2022-08-26T06:10:54.222Z,21.58
2022-08-26T06:13:26.895Z,21.63
2022-08-26T06:15:59.320Z,21.73
2022-08-26T06:18:34.738Z,21.81
2022-08-26T06:21:11.892Z,21.76
2022-08-26T06:23:57.084Z,21.52
2022-08-26T06:26:26.172Z,21.81
2022-08-26T06:28:53.021Z,21.59
2022-08-26T06:31:19.881Z,21.73
2022-08-26T06:33:46.907Z,21.31
2022-08-26T06:36:23.326Z,21.70
2022-08-26T06:38:51.761Z,22.02
2022-08-26T06:41:23.764Z,21.76
2022-08-26T06:43:52.416Z,21.73
2022-08-26T06:46:22.373Z,21.69
2022-08-26T06:48:50.237Z,21.57
2022-08-26T06:51:28.178Z,21.45
2022-08-26T06:53:57.241Z,21.81
2022-08-26T06:56:26.858Z,22.31
2022-08-26T06:58:53.633Z,23.13
2022-08-26T07:01:26.481Z,23.23
2022-08-26T07:03:57.141Z,23.41
2022-08-26T07:06:24.387Z,23.36
2022-08-26T07:08:54.164Z,23.61
2022-08-26T07:11:20.921Z,23.47
2022-08-26T07:13:48.370Z,23.54
2022-08-26T07:16:17.760Z,23.72
2022-08-26T07:18:45.821Z,23.81
2022-08-26T07:21:14.718Z,23.72
2022-08-26T07:23:41.580Z,23.60
2022-08-26T07:26:12.220Z,23.74
2022-08-26T07:28:39.493Z,23.63
2022-08-26T07:31:07.597Z,23.66
2022-08-26T07:33:38.755Z,23.48
2022-08-26T07:36:08.592Z,23.39
2022-08-26T07:38:36.701Z,23.71
2022-08-26T07:41:03.857Z,23.95
2022-08-26T07:43:31.564Z,24.38
2022-08-26T07:45:58.261Z,24.66
2022-08-26T07:48:25.041Z,24.98
2022-08-26T07:50:53.841Z,24.71
2022-08-26T07:53:21.868Z,25.09
2022-08-26T07:55:51.323Z,25.14
2022-08-26T07:58:19.448Z,24.81
2022-08-26T08:00:47.440Z,24.68
2022-08-26T08:03:15.175Z,24.82
2022-08-26T08:05:42.354Z,25.05
2022-08-26T08:08:26.988Z,25.07
2022-08-26T08:10:55.525Z,25.60
2022-08-26T08:13:23.565Z,25.38
2022-08-26T08:15:50.994Z,25.38
2022-08-26T08:18:20.520Z,25.76
2022-08-26T08:20:59.035Z,25.65
2022-08-26T08:23:32.859Z,25.95
2022-08-26T08:26:11.013Z,26.06
2022-08-26T08:28:38.760Z,26.19
2022-08-26T08:31:05.965Z,26.40
2022-08-26T08:33:33.803Z,26.55
2022-08-26T08:36:01.525Z,26.73
2022-08-26T08:38:28.624Z,27.18
2022-08-26T08:40:55.450Z,27.50
2022-08-26T08:43:39.995Z,27.60
2022-08-26T08:46:16.504Z,27.90
2022-08-26T08:48:51.211Z,27.77
2022-08-26T08:51:26.580Z,27.68
2022-08-26T08:53:55.066Z,27.81
2022-08-26T08:56:29.192Z,27.54
2022-08-26T08:59:19.620Z,27.20
2022-08-26T09:02:11.063Z,26.91
2022-08-26T09:04:53.820Z,27.07
2022-08-26T09:07:30.473Z,27.25
2022-08-26T09:10:06.162Z,26.70
2022-08-26T09:12:34.536Z,26.84
2022-08-26T09:15:11.329Z,26.98
2022-08-26T09:17:47.120Z,26.58
2022-08-26T09:20:18.146Z,27.02
2022-08-26T09:22:44.948Z,27.38
2022-08-26T09:25:14.095Z,27.84
2022-08-26T09:27:50.540Z,28.08
2022-08-26T09:30:32.954Z,28.39
2022-08-26T09:33:03.242Z,28.40
2022-08-26T09:35:40.839Z,28.54
2022-08-26T09:38:22.645Z,28.70
2022-08-26T09:40:59.779Z,28.56
2022-08-26T09:43:28.578Z,28.13
2022-08-26T09:46:17.805Z,27.55
2022-08-26T09:48:44.785Z,27.16
2022-08-26T09:51:23.311Z,27.20
2022-08-26T09:53:57.551Z,27.06
2022-08-26T09:56:33.496Z,26.92
2022-08-26T09:59:01.453Z,26.93
2022-08-26T10:01:31.908Z,26.89
2022-08-26T10:04:14.065Z,26.99
2022-08-26T10:07:05.890Z,27.06
2022-08-26T10:09:38.989Z,27.18
2022-08-26T10:12:11.629Z,27.04
2022-08-26T10:14:48.641Z,27.46
2022-08-26T10:17:34.232Z,27.46
2022-08-26T10:20:25.339Z,27.22
2022-08-26T10:23:00.979Z,27.31
2022-08-26T10:25:51.409Z,27.48
2022-08-26T10:28:37.903Z,27.67
2022-08-26T10:31:18.484Z,28.12
2022-08-26T10:33:47.266Z,28.51
2022-08-26T10:36:47.030Z,28.89
2022-08-26T10:39:43.650Z,28.57
2022-08-26T10:42:19.391Z,28.39
2022-08-26T10:44:52.437Z,28.72
2022-08-26T10:47:26.009Z,28.81
2022-08-26T10:49:57.491Z,29.04
2022-08-26T10:52:55.290Z,29.16
2022-08-26T10:55:53.244Z,29.67
2022-08-26T10:58:47.866Z,30.00
2022-08-26T11:01:43.207Z,29.91
2022-08-26T11:04:16.657Z,29.76
2022-08-26T11:06:46.114Z,29.63
2022-08-26T11:09:43.100Z,29.78
2022-08-26T11:12:10.476Z,29.99
2022-08-26T11:14:39.498Z,29.77
2022-08-26T11:17:45.595Z,30.15
2022-08-26T11:20:27.573Z,30.64
2022-08-26T11:22:55.883Z,30.57
2022-08-26T11:25:30.218Z,30.59
2022-08-26T11:27:59.888Z,30.43
2022-08-26T11:30:40.574Z,30.65
2022-08-26T11:33:08.467Z,30.62
2022-08-26T11:35:37.411Z,30.53
2022-08-26T11:38:26.479Z,30.62
2022-08-26T11:41:06.493Z,30.67
2022-08-26T11:43:34.132Z,30.72
2022-08-26T11:46:06.020Z,30.92
2022-08-26T11:48:40.711Z,31.02
2022-08-26T11:51:11.237Z,30.52
2022-08-26T11:53:41.096Z,30.57
2022-08-26T11:56:32.623Z,30.90
2022-08-26T11:59:07.657Z,30.03
2022-08-26T12:01:38.322Z,30.35
2022-08-26T12:04:08.285Z,30.08
2022-08-26T12:06:48.699Z,30.24
2022-08-26T12:09:23.566Z,30.09
2022-08-26T12:11:50.849Z,29.81
2022-08-26T12:14:21.895Z,29.46
2022-08-26T12:16:48.866Z,28.93
2022-08-26T12:19:34.011Z,28.15
2022-08-26T12:22:07.597Z,28.01
2022-08-26T12:24:35.935Z,27.65
2022-08-26T12:27:37.332Z,27.21
2022-08-26T12:30:12.235Z,27.56
2022-08-26T12:32:57.486Z,27.53
2022-08-26T12:35:25.701Z,27.25
2022-08-26T12:37:54.520Z,26.90
2022-08-26T12:40:28.967Z,26.49
2022-08-26T12:42:57.444Z,26.85
2022-08-26T12:45:45.306Z,26.77
2022-08-26T12:48:29.944Z,26.81
2022-08-26T12:50:58.144Z,26.35
2022-08-26T12:53:27.980Z,26.08
2022-08-26T12:56:03.759Z,25.68
2022-08-26T12:58:36.041Z,25.48
2022-08-26T13:01:08.791Z,25.14
2022-08-26T13:03:38.987Z,25.16
2022-08-26T13:06:29.640Z,25.20
2022-08-26T13:09:30.207Z,25.05
2022-08-26T13:11:58.452Z,24.97
2022-08-26T13:14:25.168Z,24.95
2022-08-26T13:16:52.954Z,24.91
2022-08-26T13:19:22.496Z,24.98
2022-08-26T13:22:01.530Z,24.97
2022-08-26T13:24:35.032Z,24.95
2022-08-26T13:27:04.440Z,24.99
2022-08-26T13:29:31.278Z,24.93
2022-08-26T13:31:58.773Z,24.89
2022-08-26T13:34:26.977Z,24.60
2022-08-26T13:36:55.304Z,24.93
2022-08-26T13:39:23.657Z,25.24
2022-08-26T13:41:51.541Z,25.71
2022-08-26T13:44:18.622Z,26.08
2022-08-26T13:49:12.488Z,26.22
2022-08-26T13:51:39.917Z,26.58
2022-08-26T13:54:07.032Z,26.44
2022-08-26T13:56:34.813Z,26.59
2022-08-26T13:59:02.137Z,26.51
2022-08-26T14:01:31.167Z,26.21
2022-08-26T14:03:58.516Z,26.19
2022-08-26T14:06:25.424Z,26.40
2022-08-26T14:08:52.327Z,26.52
2022-08-26T14:11:19.440Z,26.26
2022-08-26T14:13:46.156Z,26.38
2022-08-26T14:16:22.211Z,26.29
2022-08-26T14:18:51.026Z,26.51
2022-08-26T14:21:18.471Z,26.38
2022-08-26T14:23:45.328Z,26.56
2022-08-26T14:26:16.816Z,26.41
2022-08-26T14:28:56.989Z,26.58
2022-08-26T14:31:24.578Z,26.67
2022-08-26T14:33:51.502Z,26.44
2022-08-26T14:36:32.276Z,26.42
2022-08-26T14:39:03.866Z,26.40
2022-08-26T14:41:32.438Z,26.25
2022-08-26T14:44:08.135Z,26.26
2022-08-26T14:46:43.718Z,26.05
2022-08-26T14:49:11.181Z,26.38
2022-08-26T14:51:39.821Z,26.37
2022-08-26T14:54:14.758Z,26.35
2022-08-26T14:57:01.266Z,26.48
2022-08-26T14:59:30.854Z,26.56
2022-08-26T15:01:58.431Z,26.54
2022-08-26T15:04:25.550Z,26.46
2022-08-26T15:06:54.366Z,26.53
2022-08-26T15:09:22.224Z,26.59
2022-08-26T15:11:49.533Z,26.41
2022-08-26T15:14:19.698Z,26.41
2022-08-26T15:16:52.288Z,26.46
2022-08-26T15:19:20.803Z,26.23
2022-08-26T15:21:47.902Z,26.41
2022-08-26T15:24:18.031Z,26.60
2022-08-26T15:26:47.451Z,26.43
2022-08-26T15:29:14.497Z,26.52
2022-08-26T15:31:41.535Z,26.68
2022-08-26T15:34:14.515Z,26.72
2022-08-26T15:36:45.952Z,26.62
2022-08-26T15:39:13.336Z,26.71
2022-08-26T15:41:41.155Z,26.62
2022-08-26T15:44:10.093Z,26.37
2022-08-26T15:46:38.401Z,26.23
2022-08-26T15:49:06.091Z,26.16
2022-08-26T15:51:45.779Z,26.16
2022-08-26T15:54:14.367Z,25.62
2022-08-26T15:56:41.315Z,25.52
2022-08-26T15:59:11.389Z,25.50
2022-08-26T16:01:38.482Z,25.21
2022-08-26T16:04:05.649Z,24.74
2022-08-26T16:06:35.426Z,24.44
2022-08-26T16:09:02.467Z,24.32
2022-08-26T16:11:29.591Z,24.54
2022-08-26T16:13:56.391Z,24.48
2022-08-26T16:16:23.590Z,24.42
2022-08-26T16:18:50.785Z,24.87
2022-08-26T16:21:20.841Z,24.74
2022-08-26T16:23:48.552Z,24.48
2022-08-26T16:26:21.484Z,24.13
2022-08-26T16:28:48.858Z,24.06
2022-08-26T16:31:16.472Z,23.83
2022-08-26T16:33:43.586Z,23.71
2022-08-26T16:36:11.224Z,23.71
2022-08-26T16:38:39.223Z,23.66
2022-08-26T16:41:06.832Z,23.54
2022-08-26T16:43:34.108Z,23.53
2022-08-26T16:46:00.929Z,23.47
2022-08-26T16:48:27.977Z,23.36
2022-08-26T16:50:55.638Z,23.82
2022-08-26T16:53:23.518Z,24.11
2022-08-26T16:55:51.574Z,23.72
2022-08-26T16:58:21.946Z,23.47
2022-08-26T17:00:49.727Z,23.35
2022-08-26T17:03:17.007Z,23.36
2022-08-26T17:05:44.117Z,23.19
2022-08-26T17:08:12.159Z,23.11
2022-08-26T17:10:39.943Z,23.65
2022-08-26T17:13:06.836Z,23.55
2022-08-26T17:15:33.645Z,23.29
2022-08-26T17:18:00.680Z,23.20
2022-08-26T17:20:27.529Z,23.32
2022-08-26T17:22:56.150Z,23.32
2022-08-26T17:25:30.538Z,23.59
2022-08-26T17:27:57.649Z,23.59
2022-08-26T17:30:25.827Z,23.60
2022-08-26T17:32:53.855Z,23.69
2022-08-26T17:35:21.171Z,23.57
2022-08-26T17:37:48.168Z,23.65
2022-08-26T17:40:18.558Z,23.40
2022-08-26T17:42:46.183Z,23.28
2022-08-26T17:45:13.930Z,23.08
2022-08-26T17:47:41.144Z,22.91
2022-08-26T17:50:10.748Z,22.84
2022-08-26T17:52:38.852Z,22.71
2022-08-26T17:55:10.059Z,22.77
2022-08-26T17:57:40.476Z,22.86
2022-08-26T18:00:13.021Z,23.00
2022-08-26T18:02:40.814Z,23.18
2022-08-26T18:05:09.119Z,23.22
2022-08-26T18:07:43.653Z,23.11
2022-08-26T18:10:13.636Z,23.15
2022-08-26T18:12:41.691Z,23.00
2022-08-26T18:15:10.040Z,22.92
2022-08-26T18:17:39.137Z,22.66
2022-08-26T18:20:08.599Z,22.50
2022-08-26T18:22:35.454Z,22.43
2022-08-26T18:25:02.143Z,22.44
2022-08-26T18:27:28.943Z,22.40
2022-08-26T18:29:55.965Z,22.36
2022-08-26T18:32:22.654Z,22.34
2022-08-26T18:34:49.447Z,22.52
2022-08-26T18:37:16.741Z,22.48
2022-08-26T18:39:43.414Z,22.88
2022-08-26T18:42:10.448Z,23.03
2022-08-26T18:44:37.166Z,22.88
2022-08-26T18:47:04.360Z,22.62
2022-08-26T18:49:31.181Z,22.47
2022-08-26T18:51:57.888Z,22.25
2022-08-26T18:54:24.617Z,22.04
2022-08-26T18:56:51.762Z,21.90
2022-08-26T18:59:18.802Z,21.80
2022-08-26T19:01:45.641Z,21.70
2022-08-26T19:04:14.760Z,21.68
2022-08-26T19:06:43.339Z,21.65
2022-08-26T19:09:11.776Z,21.65
2022-08-26T19:11:42.226Z,21.65
2022-08-26T19:14:15.854Z,21.60
2022-08-26T19:16:45.662Z,21.65
2022-08-26T19:19:12.893Z,21.66
2022-08-26T19:21:40.567Z,21.67
2022-08-26T19:24:15.112Z,21.65
2022-08-26T19:26:47.984Z,21.65
2022-08-26T19:29:15.451Z,21.70
2022-08-26T19:31:43.995Z,21.74
2022-08-26T19:34:13.263Z,21.71
2022-08-26T19:36:44.776Z,21.71
2022-08-26T19:39:13.826Z,21.73
2022-08-26T19:41:40.944Z,21.68
2022-08-26T19:44:33.997Z,21.69
2022-08-26T19:47:01.203Z,21.69
2022-08-26T19:49:28.042Z,21.69
2022-08-26T19:51:54.893Z,21.63
2022-08-26T19:54:22.781Z,21.65
2022-08-26T19:56:49.879Z,21.70
2022-08-26T19:59:17.552Z,21.67
2022-08-26T20:01:44.810Z,21.72
2022-08-26T20:04:12.490Z,21.70
2022-08-26T20:06:39.709Z,21.70
2022-08-26T20:09:06.593Z,21.70
2022-08-26T20:11:33.402Z,21.72
2022-08-26T20:14:00.468Z,21.72
2022-08-26T20:16:27.472Z,21.80
2022-08-26T20:19:12.861Z,21.82
2022-08-26T20:21:41.682Z,21.84
2022-08-26T20:24:13.506Z,21.80
2022-08-26T20:26:42.471Z,21.68
2022-08-26T20:29:11.837Z,21.61
2022-08-26T20:31:39.331Z,21.57
2022-08-26T20:34:06.883Z,21.53
2022-08-26T20:36:34.363Z,21.56
2022-08-26T20:39:01.309Z,21.57
2022-08-26T20:41:28.663Z,21.56
2022-08-26T20:43:56.275Z,21.52
2022-08-26T20:46:25.045Z,21.53
2022-08-26T20:48:53.714Z,21.52
2022-08-26T20:51:23.564Z,21.46
2022-08-26T20:53:50.813Z,21.46
2022-08-26T20:56:21.839Z,21.40
2022-08-26T20:58:48.615Z,21.42
2022-08-26T21:01:21.980Z,21.40
2022-08-26T21:03:51.849Z,21.37
2022-08-26T21:06:19.087Z,21.47
2022-08-26T21:08:48.466Z,21.47
2022-08-26T21:11:17.383Z,21.45
2022-08-26T21:14:03.981Z,21.41
2022-08-26T21:16:31.698Z,21.42
2022-08-26T21:19:00.416Z,21.40
2022-08-26T21:21:27.698Z,21.45
2022-08-26T21:23:55.586Z,21.40
2022-08-26T21:26:23.067Z,21.45
2022-08-26T21:28:50.293Z,21.41
2022-08-26T21:31:20.436Z,21.41
2022-08-26T21:33:47.248Z,21.42
2022-08-26T21:36:15.198Z,21.40
2022-08-26T21:38:42.670Z,21.41
2022-08-26T21:41:18.725Z,21.40
2022-08-26T21:43:47.145Z,21.48
2022-08-26T21:46:17.553Z,21.50
2022-08-26T21:48:50.861Z,21.47
2022-08-26T21:51:22.751Z,21.48
2022-08-26T21:53:50.357Z,21.44
2022-08-26T21:56:20.008Z,21.43
2022-08-26T21:58:48.645Z,21.46
2022-08-26T22:01:22.458Z,21.49
2022-08-26T22:03:58.779Z,21.46
2022-08-26T22:07:21.335Z,21.42
2022-08-26T22:09:48.656Z,21.41
2022-08-26T22:12:18.088Z,21.38
2022-08-26T22:14:45.675Z,21.41
2022-08-26T22:17:12.876Z,21.36
2022-08-26T22:19:45.808Z,21.38
2022-08-26T22:22:13.943Z,21.37
2022-08-26T22:24:40.883Z,21.43
2022-08-26T22:27:07.679Z,21.39
2022-08-26T22:29:34.489Z,21.38
2022-08-26T22:32:01.739Z,21.36
2022-08-26T22:34:28.916Z,21.31
2022-08-26T22:36:56.207Z,21.34
2022-08-26T22:39:25.168Z,21.27
2022-08-26T22:41:53.324Z,21.23
2022-08-26T22:44:22.196Z,21.15
2022-08-26T22:46:50.861Z,21.12
2022-08-26T22:49:17.851Z,21.07
2022-08-26T22:51:45.836Z,20.97
2022-08-26T22:54:13.521Z,20.92
2022-08-26T22:56:40.568Z,20.93
2022-08-26T22:59:08.669Z,20.86
2022-08-26T23:01:38.315Z,20.84
2022-08-26T23:04:06.589Z,20.82
2022-08-26T23:06:39.140Z,20.81
2022-08-26T23:09:07.496Z,20.75
2022-08-26T23:11:35.047Z,20.72
2022-08-26T23:14:06.308Z,20.75
2022-08-26T23:16:44.057Z,20.69
2022-08-26T23:19:12.774Z,20.70
2022-08-26T23:21:40.507Z,20.63
2022-08-26T23:24:08.263Z,20.67
2022-08-26T23:26:36.298Z,20.64
2022-08-26T23:29:05.076Z,20.67
2022-08-26T23:31:32.338Z,20.66
2022-08-26T23:34:18.314Z,20.68
2022-08-26T23:36:45.125Z,20.62
2022-08-26T23:39:14.696Z,20.55
2022-08-26T23:41:42.279Z,20.52
2022-08-26T23:44:09.156Z,20.50
2022-08-26T23:46:35.958Z,20.43
2022-08-26T23:49:04.192Z,20.46
2022-08-26T23:51:49.530Z,20.46
2022-08-26T23:54:16.521Z,20.51
2022-08-26T23:56:43.347Z,20.40
2022-08-26T23:59:10.047Z,20.39
